Time;durP1;ratioP1;P1;durP2;ratioP2;P2;SDS_P1;SDS_P2;PMS_P1;PMS_P2;Temp;Humidity;BMP_temperature;BMP_pressure;BME280_temperature;BME280_humidity;BME280_pressure;Samples;Min_cycle;Max_cycle;Signal;HPM_P1;HPM_P2
2023/11/09 00:19:49;;;;;;;5.13;1.15;;;9.90;99.90;;;;;;5056193;28;20174;-67
2023/11/09 00:22:15;;;;;;;1.73;1.25;;;10.00;99.90;;;;;;5052387;28;20090;-67
2023/11/09 00:24:41;;;;;;;3.67;1.25;;;10.00;99.90;;;;;;5063264;28;20067;-67
2023/11/09 00:27:06;;;;;;;1.77;1.00;;;10.00;99.90;;;;;;5057168;28;20096;-66
2023/11/09 00:29:33;;;;;;;10.98;2.17;;;10.00;99.90;;;;;;5061949;28;20096;-67
2023/11/09 00:32:00;;;;;;;3.22;1.10;;;10.00;99.90;;;;;;5063758;28;20482;-66
2023/11/09 00:34:26;;;;;;;4.53;1.23;;;10.00;99.90;;;;;;5065443;28;20036;-65
2023/11/09 00:36:51;;;;;;;3.47;1.02;;;9.90;99.90;;;;;;5061357;28;20040;-66
2023/11/09 00:39:20;;;;;;;9.48;1.52;;;9.90;99.90;;;;;;5066866;28;20473;-66
2023/11/09 00:41:45;;;;;;;4.32;1.20;;;10.00;99.90;;;;;;5060396;28;20028;-67
2023/11/09 00:44:11;;;;;;;5.63;1.50;;;10.00;99.90;;;;;;5063686;28;20039;-67
2023/11/09 00:46:37;;;;;;;3.67;1.23;;;10.00;99.90;;;;;;5066916;28;20029;-66
2023/11/09 00:49:03;;;;;;;6.82;2.10;;;10.00;99.90;;;;;;5059900;28;20029;-67
2023/11/09 00:51:29;;;;;;;2.72;1.55;;;10.00;99.90;;;;;;5060912;28;20070;-67
2023/11/09 00:53:54;;;;;;;3.88;1.42;;;9.90;99.90;;;;;;5064820;28;20388;-67
2023/11/09 00:56:20;;;;;;;7.15;1.42;;;9.90;99.90;;;;;;5062694;28;20468;-66
2023/11/09 00:58:45;;;;;;;7.47;1.38;;;9.90;99.90;;;;;;5066404;28;20089;-67
2023/11/09 01:01:11;;;;;;;7.07;1.60;;;10.00;99.90;;;;;;5061566;28;20032;-65
2023/11/09 01:03:37;;;;;;;6.45;1.58;;;9.90;99.90;;;;;;5055077;28;20040;-67
2023/11/09 01:06:05;;;;;;;10.00;1.50;;;10.00;99.90;;;;;;5061756;28;20020;-66
2023/11/09 01:08:30;;;;;;;4.20;1.65;;;10.00;99.90;;;;;;5061272;28;20027;-66
2023/11/09 01:10:56;;;;;;;3.88;1.40;;;10.00;99.90;;;;;;5063144;28;20028;-66
2023/11/09 01:13:22;;;;;;;1.70;1.30;;;10.00;99.90;;;;;;5065240;28;20060;-66
2023/11/09 01:15:47;;;;;;;5.57;1.45;;;10.00;99.90;;;;;;5061919;28;20064;-66
2023/11/09 01:18:14;;;;;;;2.80;1.40;;;10.00;99.90;;;;;;5068859;28;20055;-66
2023/11/09 01:20:40;;;;;;;4.75;1.70;;;9.90;99.90;;;;;;5054218;28;20036;-67
2023/11/09 01:23:09;;;;;;;5.00;1.55;;;10.00;99.90;;;;;;5067396;28;20028;-67
2023/11/09 01:25:35;;;;;;;3.03;1.50;;;9.90;99.90;;;;;;5062002;28;20497;-67
2023/11/09 01:28:02;;;;;;;3.15;1.88;;;9.90;99.90;;;;;;5058163;28;20057;-67
2023/11/09 01:30:29;;;;;;;3.45;1.55;;;9.90;99.90;;;;;;5059365;28;20025;-66
2023/11/09 01:32:56;;;;;;;8.75;1.50;;;9.90;99.90;;;;;;5067345;28;20036;-67
2023/11/09 01:35:22;;;;;;;3.33;1.70;;;9.90;99.90;;;;;;5065044;28;20020;-67
2023/11/09 01:37:47;;;;;;;5.60;1.67;;;9.90;99.90;;;;;;5066430;28;20028;-66
2023/11/09 01:40:13;;;;;;;7.63;1.90;;;9.90;99.90;;;;;;5059633;28;20028;-67
2023/11/09 01:42:41;;;;;;;6.43;1.92;;;9.90;99.90;;;;;;5058315;28;20040;-67
2023/11/09 01:45:08;;;;;;;10.75;1.70;;;9.90;99.90;;;;;;5065475;28;20111;-67
2023/11/09 01:47:34;;;;;;;7.38;2.17;;;9.90;99.90;;;;;;5058641;28;20032;-67
2023/11/09 01:50:02;;;;;;;2.92;1.75;;;9.90;99.90;;;;;;5059177;28;20444;-67
2023/11/09 01:52:28;;;;;;;4.43;1.90;;;9.90;99.90;;;;;;5064112;28;20029;-67
2023/11/09 01:54:55;;;;;;;9.75;1.85;;;9.90;99.90;;;;;;5063583;28;20039;-67
2023/11/09 01:57:21;;;;;;;3.83;1.75;;;9.90;99.90;;;;;;5067924;28;20035;-67
2023/11/09 01:59:50;;;;;;;10.38;1.85;;;9.90;99.90;;;;;;5060082;28;20020;-67
2023/11/09 02:02:15;;;;;;;4.20;1.80;;;9.90;99.90;;;;;;5058922;28;20017;-67
2023/11/09 02:04:41;;;;;;;4.78;1.80;;;9.90;99.90;;;;;;5053446;28;20031;-67
2023/11/09 02:07:07;;;;;;;4.60;2.15;;;9.90;99.90;;;;;;5048568;28;20431;-67
2023/11/09 02:09:33;;;;;;;7.00;1.95;;;9.90;99.90;;;;;;5061541;28;20016;-67
2023/11/09 02:12:00;;;;;;;13.30;2.40;;;9.90;99.90;;;;;;5055303;28;20017;-66
2023/11/09 02:14:25;;;;;;;4.63;2.15;;;9.90;99.90;;;;;;5049803;28;20501;-67
2023/11/09 02:16:51;;;;;;;2.58;1.77;;;9.90;99.90;;;;;;5052862;28;20037;-66
2023/11/09 02:19:18;;;;;;;4.47;2.13;;;9.90;99.90;;;;;;5054793;28;20071;-66
2023/11/09 02:21:51;;;;;;;15.98;2.53;;;9.90;99.90;;;;;;5065487;28;20468;-66
2023/11/09 02:24:16;;;;;;;4.97;2.30;;;9.90;99.90;;;;;;5054940;28;20025;-67
2023/11/09 02:26:42;;;;;;;6.95;1.92;;;9.90;99.90;;;;;;5051775;28;20023;-66
2023/11/09 02:29:08;;;;;;;3.05;2.03;;;9.90;99.90;;;;;;5055410;28;20021;-68
2023/11/09 02:31:33;;;;;;;6.47;2.28;;;10.00;99.90;;;;;;5058812;28;20017;-66
2023/11/09 02:34:02;;;;;;;3.83;1.98;;;10.00;99.90;;;;;;5064726;28;20107;-66
2023/11/09 02:36:28;;;;;;;14.57;2.92;;;10.00;99.90;;;;;;5067361;28;20025;-67
2023/11/09 02:38:54;;;;;;;4.65;1.92;;;10.00;99.90;;;;;;5066179;28;20093;-67
2023/11/09 02:41:19;;;;;;;6.00;1.90;;;9.90;99.90;;;;;;5064588;28;20115;-66
2023/11/09 02:43:45;;;;;;;3.90;2.05;;;9.90;99.90;;;;;;5068473;28;20121;-67
2023/11/09 02:46:11;;;;;;;4.43;1.65;;;9.90;99.90;;;;;;5070059;28;20597;-67
2023/11/09 02:48:37;;;;;;;3.03;1.92;;;9.90;99.90;;;;;;5065885;28;20021;-66
2023/11/09 02:51:05;;;;;;;5.90;2.55;;;9.90;99.90;;;;;;5063239;28;20446;-66
2023/11/09 02:53:30;;;;;;;6.10;1.60;;;9.90;99.90;;;;;;5067667;28;20029;-67
2023/11/09 02:55:56;;;;;;;3.08;1.90;;;10.00;99.90;;;;;;5071474;28;20020;-66
2023/11/09 02:58:22;;;;;;;8.38;1.90;;;10.00;99.90;;;;;;5061971;28;20016;-66
2023/11/09 03:00:49;;;;;;;4.40;1.73;;;10.00;99.90;;;;;;5071066;28;20012;-67
2023/11/09 03:03:15;;;;;;;3.75;1.65;;;10.00;99.90;;;;;;5065508;28;20025;-67
2023/11/09 03:05:41;;;;;;;8.77;2.30;;;9.90;99.90;;;;;;5062320;28;20070;-66
2023/11/09 03:08:06;;;;;;;2.85;1.52;;;9.90;99.90;;;;;;5054552;28;20021;-67
2023/11/09 03:10:32;;;;;;;7.95;1.50;;;9.90;99.90;;;;;;5054921;28;20031;-65
2023/11/09 03:13:00;;;;;;;7.57;1.73;;;10.00;99.90;;;;;;5052932;28;20958;-67
2023/11/09 03:15:26;;;;;;;4.65;1.65;;;9.90;99.90;;;;;;5053294;28;20131;-67
2023/11/09 03:17:52;;;;;;;4.35;1.45;;;9.90;99.90;;;;;;5054091;28;20553;-66
2023/11/09 03:20:18;;;;;;;7.30;1.65;;;9.90;99.90;;;;;;5061630;28;20102;-66
2023/11/09 03:22:47;;;;;;;5.28;1.30;;;9.90;99.90;;;;;;5055981;28;20544;-66
2023/11/09 03:25:13;;;;;;;9.98;1.83;;;9.90;99.90;;;;;;5055184;28;20136;-66
2023/11/09 03:27:39;;;;;;;5.97;1.50;;;9.90;99.90;;;;;;5055487;28;20096;-66
2023/11/09 03:30:05;;;;;;;5.55;1.85;;;9.90;99.90;;;;;;5051787;28;20125;-66
2023/11/09 03:32:31;;;;;;;2.80;1.70;;;9.90;99.90;;;;;;5051766;28;20043;-65
2023/11/09 03:34:56;;;;;;;3.63;1.55;;;9.90;99.90;;;;;;5054700;28;20040;-66
2023/11/09 03:37:22;;;;;;;7.20;1.70;;;9.90;99.90;;;;;;5052855;28;20432;-65
2023/11/09 03:39:48;;;;;;;2.15;1.70;;;9.90;99.90;;;;;;5053018;28;20020;-66
2023/11/09 03:42:14;;;;;;;4.55;1.50;;;10.00;99.90;;;;;;5053932;28;20029;-66
2023/11/09 03:44:40;;;;;;;5.28;2.40;;;10.00;99.90;;;;;;5062550;28;20035;-66
2023/11/09 03:47:06;;;;;;;2.65;1.60;;;10.00;99.90;;;;;;5051116;28;20608;-66
2023/11/09 03:49:32;;;;;;;7.40;1.85;;;10.00;99.90;;;;;;5058207;28;20025;-65
2023/11/09 03:51:58;;;;;;;2.28;1.58;;;10.00;99.90;;;;;;5057842;28;20091;-66
2023/11/09 03:54:24;;;;;;;3.08;1.48;;;10.00;99.90;;;;;;5061071;28;20382;-66
2023/11/09 03:56:49;;;;;;;4.22;1.25;;;10.00;99.90;;;;;;5055637;28;20025;-65
2023/11/09 03:59:15;;;;;;;8.45;1.23;;;10.00;99.90;;;;;;5059514;28;20036;-66
2023/11/09 04:01:40;;;;;;;1.98;1.02;;;10.00;99.90;;;;;;5054976;28;20040;-66
2023/11/09 04:04:06;;;;;;;11.15;4.03;;;10.10;99.90;;;;;;5057976;28;20025;-66
2023/11/09 04:06:32;;;;;;;6.30;1.30;;;10.00;99.90;;;;;;5052921;28;20047;-66
2023/11/09 04:08:58;;;;;;;3.78;1.30;;;10.10;99.90;;;;;;5059091;28;20100;-65
2023/11/09 04:11:24;;;;;;;1.80;1.00;;;10.00;99.90;;;;;;5068651;28;20454;-65
2023/11/09 04:13:49;;;;;;;10.68;1.52;;;10.00;99.90;;;;;;5064920;28;20406;-66
2023/11/09 04:16:15;;;;;;;6.38;1.35;;;10.10;99.90;;;;;;5054824;28;20024;-65
2023/11/09 04:18:41;;;;;;;1.02;0.90;;;10.00;99.90;;;;;;5057345;28;20036;-67
2023/11/09 04:21:10;;;;;;;5.55;1.13;;;10.00;99.90;;;;;;5059070;28;20032;-65
2023/11/09 04:23:38;;;;;;;17.67;3.63;;;10.00;99.90;;;;;;5054277;28;20083;-65
2023/11/09 04:26:10;;;;;;;2.05;1.30;;;10.00;99.90;;;;;;5061104;28;20042;-66
2023/11/09 04:28:36;;;;;;;4.90;1.23;;;10.00;99.90;;;;;;5049582;28;20116;-65
2023/11/09 04:31:04;;;;;;;5.03;1.10;;;10.00;99.90;;;;;;5056352;28;20585;-65
2023/11/09 04:33:31;;;;;;;2.38;1.27;;;10.00;99.90;;;;;;5058121;28;20029;-66
2023/11/09 04:35:56;;;;;;;3.97;1.20;;;10.10;99.90;;;;;;5068471;28;20103;-63
2023/11/09 04:38:23;;;;;;;1.98;1.70;;;10.00;99.90;;;;;;5059566;28;20116;-67
2023/11/09 04:40:55;;;;;;;12.60;1.70;;;10.00;99.90;;;;;;5064336;28;20395;-66
2023/11/09 04:43:22;;;;;;;6.68;1.52;;;10.00;99.90;;;;;;5059185;28;20029;-67
2023/11/09 04:45:47;;;;;;;7.40;1.27;;;10.00;99.90;;;;;;5067742;28;20032;-65
2023/11/09 04:48:20;;;;;;;2.38;1.58;;;10.00;99.90;;;;;;5057402;28;20391;-66
2023/11/09 04:51:00;;;;;;;5.00;1.20;;;10.00;99.90;;;;;;5068917;28;20031;-66
2023/11/09 04:53:39;;;;;;;5.25;1.60;;;10.00;99.90;;;;;;5061594;28;20020;-64
2023/11/09 04:56:19;;;;;;;4.82;1.40;;;9.90;99.90;;;;;;5060517;28;20052;-67
2023/11/09 04:58:48;;;;;;;2.55;1.20;;;10.00;99.90;;;;;;5064708;28;20056;-67
2023/11/09 05:06:52;;;;;;;2.78;1.25;;;10.00;99.90;;;;;;5055234;28;20079;-66
2023/11/09 05:09:18;;;;;;;1.80;1.10;;;10.00;99.90;;;;;;5056775;28;20031;-66
2023/11/09 05:11:45;;;;;;;6.57;1.65;;;10.00;99.90;;;;;;5056046;28;20025;-68
2023/11/09 05:14:11;;;;;;;3.30;1.05;;;10.00;99.90;;;;;;5061900;28;20081;-66
2023/11/09 05:16:37;;;;;;;10.52;1.75;;;10.00;99.90;;;;;;5056056;28;20388;-66
2023/11/09 05:19:03;;;;;;;3.50;1.30;;;10.00;99.90;;;;;;5051342;28;20071;-66
2023/11/09 05:21:28;;;;;;;8.95;1.17;;;10.00;99.90;;;;;;5053771;28;20103;-65
2023/11/09 05:23:54;;;;;;;6.75;1.70;;;9.90;99.90;;;;;;5061874;28;20071;-65
2023/11/09 05:26:21;;;;;;;8.48;1.90;;;9.90;99.90;;;;;;5056232;28;20039;-66
2023/11/09 05:28:46;;;;;;;4.85;1.40;;;9.90;99.90;;;;;;5050053;28;20100;-65
2023/11/09 05:31:12;;;;;;;2.22;1.40;;;9.80;99.90;;;;;;5052753;28;20111;-66
2023/11/09 05:33:38;;;;;;;3.47;1.67;;;9.80;99.90;;;;;;5053593;28;20036;-66
2023/11/09 05:36:08;;;;;;;2.83;1.38;;;9.80;99.90;;;;;;5054285;28;20028;-67
2023/11/09 05:38:35;;;;;;;4.00;1.30;;;9.80;99.90;;;;;;5052303;28;20035;-66
2023/11/09 05:41:00;;;;;;;6.13;1.40;;;9.80;99.90;;;;;;5050945;28;20035;-66
2023/11/09 05:43:27;;;;;;;1.75;1.40;;;9.80;99.90;;;;;;5049836;28;20641;-68
2023/11/09 05:45:53;;;;;;;2.25;1.50;;;9.70;99.90;;;;;;5052102;28;20496;-67
2023/11/09 05:48:19;;;;;;;3.35;1.50;;;9.70;99.90;;;;;;5055177;28;20037;-66
2023/11/09 05:50:44;;;;;;;6.47;1.80;;;9.70;99.90;;;;;;5053133;28;20055;-67
2023/11/09 05:53:10;;;;;;;2.80;1.70;;;9.70;99.90;;;;;;5052380;28;20059;-67
2023/11/09 05:55:36;;;;;;;6.50;1.45;;;9.70;99.90;;;;;;5055145;28;20148;-67
2023/11/09 05:58:03;;;;;;;1.75;1.13;;;9.70;99.90;;;;;;5049320;28;20028;-66
2023/11/09 06:00:29;;;;;;;3.30;1.60;;;9.70;99.90;;;;;;5049019;28;20028;-67
2023/11/09 06:02:55;;;;;;;7.13;2.05;;;9.70;99.90;;;;;;5057444;28;20020;-66
2023/11/09 06:05:24;;;;;;;2.45;1.45;;;9.70;99.90;;;;;;5059469;28;20485;-66
2023/11/09 06:07:50;;;;;;;10.65;1.65;;;9.70;99.90;;;;;;5053321;28;20108;-69
2023/11/09 06:10:16;;;;;;;9.10;1.60;;;9.70;99.90;;;;;;5060897;28;20021;-68
2023/11/09 06:12:42;;;;;;;2.17;1.20;;;9.70;99.90;;;;;;5058393;28;20099;-69
2023/11/09 06:15:07;;;;;;;4.82;1.75;;;9.70;99.90;;;;;;5059860;28;20029;-68
2023/11/09 06:17:36;;;;;;;2.40;1.60;;;9.70;99.90;;;;;;5054820;28;20066;-66
2023/11/09 06:20:05;;;;;;;2.10;1.30;;;9.60;99.90;;;;;;5057036;28;20055;-68
2023/11/09 06:22:30;;;;;;;2.58;1.20;;;9.70;99.90;;;;;;5058108;28;20032;-68
2023/11/09 06:24:56;;;;;;;1.88;0.98;;;9.60;99.90;;;;;;5058349;28;20028;-67
2023/11/09 06:27:21;;;;;;;4.60;1.38;;;9.60;99.90;;;;;;5059102;28;20373;-69
2023/11/09 06:29:47;;;;;;;4.00;1.33;;;9.60;99.90;;;;;;5060567;28;20893;-68
2023/11/09 06:32:13;;;;;;;3.75;1.13;;;9.70;99.90;;;;;;5060891;28;20033;-68
2023/11/09 06:34:39;;;;;;;16.33;2.60;;;9.60;99.90;;;;;;5059840;28;20055;-67
2023/11/09 06:37:05;;;;;;;21.45;7.43;;;9.60;99.90;;;;;;5060782;28;20261;-68
2023/11/09 06:39:30;;;;;;;12.38;5.63;;;9.60;99.90;;;;;;5056354;28;20033;-66
2023/11/09 06:41:56;;;;;;;5.53;3.05;;;9.70;99.90;;;;;;5060131;28;20060;-69
2023/11/09 06:44:21;;;;;;;3.38;1.73;;;9.70;99.90;;;;;;5065475;28;20603;-68
2023/11/09 06:46:47;;;;;;;3.65;1.73;;;9.70;99.90;;;;;;5060898;28;20393;-68
2023/11/09 06:49:12;;;;;;;12.40;1.60;;;9.70;99.90;;;;;;5060417;28;20025;-68
2023/11/09 06:51:38;;;;;;;3.95;1.00;;;9.70;99.90;;;;;;5059184;28;20099;-68
2023/11/09 06:54:04;;;;;;;2.03;1.13;;;9.70;99.90;;;;;;5065712;28;20491;-68
2023/11/09 06:56:32;;;;;;;5.15;1.48;;;9.70;99.90;;;;;;5059823;28;20625;-68
2023/11/09 06:58:59;;;;;;;3.10;1.25;;;9.70;99.90;;;;;;5068039;28;20036;-68
2023/11/09 07:01:24;;;;;;;3.75;1.00;;;9.70;99.90;;;;;;5055118;28;20029;-68
2023/11/09 07:03:51;;;;;;;3.42;1.33;;;9.70;99.90;;;;;;5068556;28;20055;-68
2023/11/09 07:06:17;;;;;;;9.48;1.58;;;9.70;99.90;;;;;;5062849;28;20089;-68
2023/11/09 07:08:43;;;;;;;7.03;1.50;;;9.70;99.90;;;;;;5062545;28;20028;-67
2023/11/09 07:11:09;;;;;;;5.60;1.30;;;9.70;99.90;;;;;;5065549;28;20042;-68
2023/11/09 07:13:36;;;;;;;4.25;1.50;;;9.70;99.90;;;;;;5037503;28;20207;-68
2023/11/09 07:16:02;;;;;;;2.63;1.30;;;9.70;99.90;;;;;;5065020;28;20499;-68
2023/11/09 07:18:28;;;;;;;4.97;1.10;;;9.70;99.90;;;;;;5060890;28;20486;-68
2023/11/09 07:20:53;;;;;;;3.47;1.02;;;9.70;99.90;;;;;;5060602;28;20061;-68
2023/11/09 07:23:24;;;;;;;3.80;0.90;;;9.70;99.90;;;;;;5061748;28;20032;-67
2023/11/09 07:25:49;;;;;;;5.78;1.00;;;9.80;99.90;;;;;;5062481;28;20029;-67
2023/11/09 07:28:15;;;;;;;2.22;0.90;;;9.80;99.90;;;;;;5063551;28;20036;-68
2023/11/09 07:30:40;;;;;;;2.97;0.70;;;9.80;99.90;;;;;;5065931;28;20029;-68
2023/11/09 07:33:06;;;;;;;6.82;0.90;;;9.80;99.90;;;;;;5069536;28;20016;-68
2023/11/09 07:35:31;;;;;;;5.78;0.60;;;9.80;99.90;;;;;;5057512;28;20016;-68
2023/11/09 07:37:58;;;;;;;10.43;1.13;;;9.80;99.90;;;;;;5059198;28;20048;-68
2023/11/09 07:40:23;;;;;;;1.55;0.50;;;9.80;99.90;;;;;;5073179;28;20020;-68
2023/11/09 07:42:49;;;;;;;5.68;1.42;;;9.80;99.90;;;;;;5060449;28;20017;-68
2023/11/09 07:45:16;;;;;;;7.15;1.10;;;9.80;99.90;;;;;;5068132;28;20024;-68
2023/11/09 07:47:45;;;;;;;1.00;0.80;;;9.80;99.90;;;;;;5058927;28;20048;-68
2023/11/09 07:50:13;;;;;;;1.80;0.68;;;9.80;99.90;;;;;;5068036;28;20016;-68
2023/11/09 07:52:39;;;;;;;2.58;0.90;;;9.80;99.90;;;;;;5050448;28;20044;-68
2023/11/09 07:55:05;;;;;;;3.42;0.80;;;9.80;99.90;;;;;;5060912;28;20081;-67
2023/11/09 07:57:34;;;;;;;2.00;0.70;;;9.80;99.90;;;;;;5056916;28;20044;-68
2023/11/09 08:00:00;;;;;;;3.42;0.57;;;9.80;99.90;;;;;;5071718;28;21484;-67
2023/11/09 08:02:26;;;;;;;4.50;0.82;;;9.80;99.90;;;;;;5058849;28;20554;-68
2023/11/09 08:04:54;;;;;;;11.18;1.00;;;9.80;99.90;;;;;;5066936;28;20386;-66
2023/11/09 08:07:21;;;;;;;3.53;0.70;;;9.90;99.90;;;;;;5062331;28;20029;-66
2023/11/09 08:09:47;;;;;;;3.17;0.65;;;9.90;99.90;;;;;;5062532;28;20059;-67
2023/11/09 08:12:13;;;;;;;3.13;0.73;;;9.90;99.90;;;;;;5055516;28;20052;-66
2023/11/09 08:14:39;;;;;;;2.88;0.68;;;9.90;99.90;;;;;;5065923;28;20665;-66
2023/11/09 08:17:04;;;;;;;3.42;0.60;;;9.90;99.90;;;;;;5057798;28;20091;-66
2023/11/09 08:19:31;;;;;;;6.82;1.25;;;9.90;99.90;;;;;;5062222;28;20105;-66
2023/11/09 08:21:56;;;;;;;3.78;1.02;;;9.90;99.90;;;;;;5059111;28;20658;-66
2023/11/09 08:24:22;;;;;;;16.77;1.52;;;10.00;99.90;;;;;;5068022;28;20051;-66
2023/11/09 08:26:48;;;;;;;9.80;0.90;;;10.00;99.90;;;;;;5055025;28;20021;-66
2023/11/09 08:29:14;;;;;;;7.25;1.38;;;10.00;99.90;;;;;;5058445;28;20701;-66
2023/11/09 08:31:40;;;;;;;2.83;1.10;;;10.10;99.90;;;;;;5064399;28;20056;-65
2023/11/09 08:34:08;;;;;;;5.15;0.90;;;10.10;99.90;;;;;;5067013;28;20024;-66
2023/11/09 08:36:33;;;;;;;7.93;0.90;;;10.10;99.90;;;;;;5057523;28;20078;-66
2023/11/09 08:39:01;;;;;;;5.57;0.90;;;10.20;99.90;;;;;;5060314;28;20040;-65
2023/11/09 08:41:26;;;;;;;1.42;0.60;;;10.20;99.90;;;;;;5061297;28;20619;-66
2023/11/09 08:43:52;;;;;;;2.80;0.60;;;10.10;99.90;;;;;;5065154;28;20060;-66
2023/11/09 08:46:17;;;;;;;2.60;0.50;;;10.20;99.90;;;;;;5073900;28;20386;-67
2023/11/09 08:48:43;;;;;;;4.20;0.50;;;10.20;99.90;;;;;;5060382;28;20407;-67
2023/11/09 08:51:13;;;;;;;4.22;0.73;;;10.20;99.90;;;;;;5071171;28;20024;-66
2023/11/09 08:53:40;;;;;;;2.58;1.00;;;10.20;99.90;;;;;;5062436;28;20028;-67
2023/11/09 08:56:06;;;;;;;2.00;1.38;;;10.20;99.90;;;;;;5067107;28;20069;-66
2023/11/09 08:58:36;;;;;;;3.45;0.77;;;10.20;99.90;;;;;;5060142;28;20103;-66
2023/11/09 09:01:05;;;;;;;11.35;1.10;;;10.10;99.90;;;;;;5074072;28;20390;-67
2023/11/09 09:03:32;;;;;;;5.82;1.08;;;10.10;99.90;;;;;;5062229;28;20056;-66
2023/11/09 09:06:01;;;;;;;2.10;1.20;;;10.10;99.90;;;;;;5070196;28;20021;-64
2023/11/09 09:08:26;;;;;;;7.40;1.13;;;10.10;99.90;;;;;;5060153;28;20765;-66
2023/11/09 09:10:56;;;;;;;10.20;1.73;;;10.00;99.90;;;;;;5061443;28;20119;-66
2023/11/09 09:13:26;;;;;;;6.32;1.38;;;9.90;99.90;;;;;;5056541;28;20029;-66
2023/11/09 09:15:53;;;;;;;13.93;2.08;;;9.90;99.90;;;;;;5068996;28;20041;-66
2023/11/09 09:18:19;;;;;;;8.48;1.35;;;9.80;99.90;;;;;;5061277;28;20456;-66
2023/11/09 09:20:44;;;;;;;14.50;2.58;;;9.90;99.90;;;;;;5063418;28;20167;-65
2023/11/09 09:23:10;;;;;;;17.23;2.72;;;9.80;99.90;;;;;;5059657;28;20021;-66
2023/11/09 09:25:38;;;;;;;13.98;2.30;;;9.90;99.90;;;;;;5071254;28;20108;-65
2023/11/09 09:28:04;;;;;;;24.52;2.83;;;9.80;99.90;;;;;;5059730;28;20036;-65
2023/11/09 09:30:29;;;;;;;11.65;2.22;;;9.70;99.90;;;;;;5066146;28;20024;-67
2023/11/09 09:32:55;;;;;;;16.27;2.95;;;9.70;99.90;;;;;;5060009;28;20107;-66
2023/11/09 09:35:25;;;;;;;9.30;2.20;;;9.70;99.90;;;;;;5069017;28;20048;-66
2023/11/09 09:37:50;;;;;;;15.27;2.72;;;9.70;99.90;;;;;;5059750;28;20021;-66
2023/11/09 09:40:19;;;;;;;17.08;2.72;;;9.70;99.90;;;;;;5069310;28;20573;-66
2023/11/09 09:42:50;;;;;;;14.25;3.17;;;9.70;99.90;;;;;;5058041;28;20082;-67
2023/11/09 09:45:18;;;;;;;8.05;2.63;;;9.80;99.90;;;;;;5056653;28;20030;-66
2023/11/09 09:47:48;;;;;;;15.18;2.70;;;9.60;99.90;;;;;;5055686;28;20372;-66
2023/11/09 09:50:15;;;;;;;7.45;2.45;;;9.70;99.90;;;;;;5064049;28;20024;-67
2023/11/09 09:52:46;;;;;;;13.23;2.97;;;9.70;99.90;;;;;;5054541;28;20039;-66
2023/11/09 09:55:11;;;;;;;18.60;2.65;;;9.60;99.90;;;;;;5066647;28;20035;-67
2023/11/09 09:57:38;;;;;;;16.90;3.13;;;9.70;99.90;;;;;;5068426;28;20048;-67
2023/11/09 10:00:06;;;;;;;16.52;2.60;;;9.80;99.90;;;;;;5058914;28;20028;-66
2023/11/09 10:02:39;;;;;;;15.88;2.83;;;9.80;99.90;;;;;;5063273;28;20039;-67
2023/11/09 10:05:12;;;;;;;19.02;2.60;;;9.80;99.90;;;;;;5064790;28;20055;-67
2023/11/09 10:08:00;;;;;;;26.48;3.80;;;9.90;99.90;;;;;;5055741;28;20040;-67
2023/11/09 10:10:32;;;;;;;20.38;3.70;;;9.90;99.90;;;;;;5061729;28;20584;-67
2023/11/09 10:12:58;;;;;;;14.10;3.03;;;9.90;99.90;;;;;;5066892;28;20045;-67
2023/11/09 10:15:24;;;;;;;16.20;3.10;;;9.90;99.90;;;;;;5056952;28;20028;-68
2023/11/09 10:17:57;;;;;;;13.55;2.88;;;9.80;99.90;;;;;;5060021;28;20107;-67
2023/11/09 10:20:23;;;;;;;20.60;4.03;;;9.90;99.90;;;;;;5058036;28;20025;-68
2023/11/09 10:22:52;;;;;;;18.30;3.00;;;9.90;99.90;;;;;;5070532;28;20025;-67
2023/11/09 10:25:18;;;;;;;21.80;3.30;;;10.00;99.90;;;;;;5069098;28;20560;-66
2023/11/09 10:27:47;;;;;;;19.27;4.90;;;9.90;99.90;;;;;;5062137;28;20025;-68
2023/11/09 10:30:16;;;;;;;22.42;4.47;;;10.00;99.90;;;;;;5063499;28;20078;-66
2023/11/09 10:32:43;;;;;;;17.48;3.83;;;10.00;99.90;;;;;;5065989;28;20017;-67
2023/11/09 10:35:11;;;;;;;12.43;3.15;;;10.00;99.90;;;;;;5059872;28;20017;-68
2023/11/09 10:37:38;;;;;;;15.20;2.75;;;10.00;99.90;;;;;;5064827;28;20111;-67
2023/11/09 10:40:05;;;;;;;19.27;3.25;;;9.90;99.90;;;;;;5072538;28;20032;-69
2023/11/09 10:42:31;;;;;;;10.80;2.88;;;9.90;99.90;;;;;;5061972;28;20052;-67
2023/11/09 10:44:57;;;;;;;17.75;3.67;;;10.00;99.90;;;;;;5064573;28;20012;-67
2023/11/09 10:47:24;;;;;;;19.58;3.60;;;10.10;99.90;;;;;;5061130;28;20111;-68
2023/11/09 10:49:53;;;;;;;23.52;3.65;;;10.20;99.90;;;;;;5067648;28;20021;-67
2023/11/09 10:52:21;;;;;;;22.42;3.40;;;10.30;99.90;;;;;;5059557;28;20021;-67
2023/11/09 10:54:51;;;;;;;19.02;4.13;;;10.30;99.90;;;;;;5058264;28;20029;-68
2023/11/09 10:57:20;;;;;;;13.43;2.70;;;10.20;99.90;;;;;;5070083;28;20024;-67
2023/11/09 10:59:48;;;;;;;18.20;4.07;;;10.10;99.90;;;;;;5069791;28;20064;-66
2023/11/09 11:02:27;;;;;;;8.15;2.42;;;10.10;99.90;;;;;;5065021;28;20162;-67
2023/11/09 11:04:56;;;;;;;13.80;2.20;;;10.20;99.90;;;;;;5062226;28;20760;-66
2023/11/09 11:07:27;;;;;;;13.30;2.22;;;10.20;99.90;;;;;;5070910;28;20055;-67
2023/11/09 11:09:56;;;;;;;16.75;3.53;;;10.10;99.90;;;;;;5061173;28;20028;-67
2023/11/09 11:12:23;;;;;;;13.75;2.95;;;10.20;99.90;;;;;;5065856;28;20066;-65
2023/11/09 11:14:51;;;;;;;17.83;3.17;;;10.20;99.90;;;;;;5068176;28;20109;-64
2023/11/09 11:17:41;;;;;;;19.95;3.35;;;10.20;99.90;;;;;;5061833;28;20064;-66
2023/11/09 11:20:36;;;;;;;15.10;2.58;;;10.30;99.90;;;;;;5063757;28;20464;-66
2023/11/09 11:23:32;;;;;;;16.48;3.15;;;10.30;99.90;;;;;;5060785;28;20032;-66
2023/11/09 11:26:05;;;;;;;10.80;2.63;;;10.30;99.90;;;;;;5066034;28;20025;-66
2023/11/09 11:28:31;;;;;;;17.40;2.85;;;10.30;99.90;;;;;;5069483;28;20471;-66
2023/11/09 11:31:07;;;;;;;10.23;2.13;;;10.20;99.90;;;;;;5063393;28;20047;-67
2023/11/09 11:33:36;;;;;;;14.05;1.88;;;10.20;99.90;;;;;;5062725;28;20055;-65
2023/11/09 11:36:03;;;;;;;15.75;1.90;;;10.20;99.90;;;;;;5059916;28;20013;-66
2023/11/09 11:38:30;;;;;;;13.52;2.10;;;10.10;99.90;;;;;;5063616;28;20162;-66
2023/11/09 11:41:22;;;;;;;14.80;1.90;;;10.10;99.90;;;;;;5061933;28;20044;-66
2023/11/09 11:43:51;;;;;;;10.63;1.88;;;10.20;99.90;;;;;;5063231;28;20119;-65
2023/11/09 11:46:19;;;;;;;15.40;2.20;;;10.10;99.90;;;;;;5070884;28;20048;-66
2023/11/09 11:48:57;;;;;;;7.95;1.48;;;10.20;99.90;;;;;;5063948;28;20112;-65
2023/11/09 11:51:24;;;;;;;7.07;2.08;;;10.20;99.90;;;;;;5070808;28;20021;-66
2023/11/09 11:53:56;;;;;;;8.32;1.13;;;10.10;99.90;;;;;;5067468;28;20056;-66
2023/11/09 11:56:40;;;;;;;9.00;1.60;;;10.20;99.90;;;;;;5058922;28;20021;-66
2023/11/09 11:59:07;;;;;;;12.02;2.25;;;10.20;99.90;;;;;;5059443;28;20054;-65
2023/11/09 12:01:33;;;;;;;19.48;2.35;;;10.20;99.90;;;;;;5058674;28;20101;-67
2023/11/09 12:04:02;;;;;;;26.92;3.17;;;10.20;99.90;;;;;;5058301;28;20038;-66
2023/11/09 12:06:28;;;;;;;19.35;2.17;;;10.30;99.90;;;;;;5056806;28;20039;-66
2023/11/09 12:08:58;;;;;;;15.25;2.47;;;10.40;99.90;;;;;;5058271;28;20029;-66
2023/11/09 12:11:28;;;;;;;8.63;1.92;;;10.40;99.90;;;;;;5061495;28;20451;-66
2023/11/09 12:13:57;;;;;;;6.95;1.58;;;10.30;99.90;;;;;;5066561;28;20031;-65
2023/11/09 12:16:24;;;;;;;16.48;2.03;;;10.40;99.90;;;;;;5062579;28;20024;-66
2023/11/09 12:18:56;;;;;;;8.15;1.75;;;10.40;99.90;;;;;;5053864;28;20109;-65
2023/11/09 12:21:27;;;;;;;7.13;1.60;;;10.50;99.90;;;;;;5067971;28;20126;-65
2023/11/09 12:23:56;;;;;;;14.52;2.15;;;10.60;99.90;;;;;;5064732;28;20545;-65
2023/11/09 12:26:23;;;;;;;10.38;1.75;;;10.60;99.90;;;;;;5060698;28;20101;-66
2023/11/09 12:28:49;;;;;;;5.60;1.30;;;10.70;99.90;;;;;;5062978;28;20028;-66
2023/11/09 12:31:20;;;;;;;6.35;1.50;;;10.90;99.90;;;;;;5060419;28;20035;-66
2023/11/09 12:34:07;;;;;;;5.97;1.50;;;10.80;99.90;;;;;;5063125;28;20040;-66
2023/11/09 12:36:41;;;;;;;8.05;1.63;;;11.00;99.90;;;;;;5055302;28;20112;-66
2023/11/09 12:41:51;;;;;;;12.48;2.45;;;11.00;99.90;;;;;;5060974;28;20043;-66
2023/11/09 12:44:24;;;;;;;9.43;1.65;;;11.10;99.90;;;;;;5064119;28;20030;-66
2023/11/09 12:46:53;;;;;;;8.07;1.17;;;11.10;99.90;;;;;;5064353;28;20016;-66
2023/11/09 12:49:20;;;;;;;7.70;1.60;;;11.10;99.90;;;;;;5055043;28;20029;-66
2023/11/09 12:51:47;;;;;;;7.25;1.67;;;11.10;99.90;;;;;;5064274;28;20526;-66
2023/11/09 12:54:13;;;;;;;8.20;1.63;;;11.20;99.90;;;;;;5064766;28;20029;-65
2023/11/09 12:56:39;;;;;;;5.60;1.50;;;11.30;99.90;;;;;;5061503;28;20533;-67
2023/11/09 12:59:11;;;;;;;8.80;1.30;;;11.40;99.90;;;;;;5060979;28;20085;-66
2023/11/09 13:01:37;;;;;;;6.07;1.40;;;11.50;99.90;;;;;;5060792;28;20024;-66
2023/11/09 13:04:02;;;;;;;6.45;1.73;;;11.60;99.90;;;;;;5060046;28;20027;-66
2023/11/09 13:06:30;;;;;;;13.05;1.98;;;11.70;99.90;;;;;;5060375;28;20020;-66
2023/11/09 13:09:32;;;;;;;7.63;1.48;;;11.80;99.90;;;;;;5062186;28;20025;-65
2023/11/09 13:11:51;;;;;;;7.72;1.38;;;12.00;99.90;;;;;;5065743;28;20036;-66
2023/11/09 13:14:19;;;;;;;10.30;1.40;;;12.00;99.90;;;;;;5061938;28;21095;-67
2023/11/09 13:16:45;;;;;;;13.73;1.80;;;12.00;99.90;;;;;;5063168;28;20034;-66